Time;durP1;ratioP1;P1;durP2;ratioP2;P2;SDS_P1;SDS_P2;PMS_P1;PMS_P2;Temp;Humidity;BMP_temperature;BMP_pressure;BME280_temperature;BME280_humidity;BME280_pressure;Samples;Min_cycle;Max_cycle;Signal;HPM_P1;HPM_P2
2023/06/06 00:02:07;;;;;;;5.23;2.80;;;;;;;-143.84;75.72;45022.41;5109168;28;20443;-55
2023/06/06 00:04:36;;;;;;;8.10;2.77;;;;;;;-143.84;75.64;45056.69;5109703;28;20448;-55
2023/06/06 00:07:08;;;;;;;3.77;2.27;;;;;;;-143.84;75.60;45094.78;5109414;28;20449;-55
2023/06/06 00:09:35;;;;;;;5.33;2.60;;;;;;;-143.84;75.44;45071.91;5109270;28;20816;-55
2023/06/06 00:12:04;;;;;;;8.70;2.40;;;;;;;-143.84;75.54;45066.22;5109280;28;20428;-55
2023/06/06 00:14:32;;;;;;;5.43;2.70;;;;;;;-143.84;75.75;45073.81;5108598;28;20495;-55
2023/06/06 00:17:00;;;;;;;4.27;2.20;;;;;;;-143.84;75.86;45073.81;5109045;28;20486;-56
2023/06/06 00:19:28;;;;;;;3.10;2.67;;;;;;;-143.84;76.18;45060.50;5109021;28;20489;-55
2023/06/06 00:21:56;;;;;;;15.10;3.20;;;;;;;-143.84;76.61;45052.88;5109157;28;20427;-55
2023/06/06 00:24:24;;;;;;;10.60;2.90;;;;;;;-143.84;77.02;45041.44;5109032;28;20443;-55
2023/06/06 00:26:51;;;;;;;9.33;2.50;;;;;;;-143.84;77.22;45073.81;5109133;28;20431;-55
2023/06/06 00:29:18;;;;;;;3.10;2.70;;;;;;;-143.84;77.80;45068.13;5110642;28;20447;-55
2023/06/06 00:31:46;;;;;;;5.17;3.07;;;;;;;-143.84;78.03;45045.25;5112821;28;20477;-55
2023/06/06 00:34:13;;;;;;;7.17;3.37;;;;;;;-143.84;78.17;45083.34;5112712;28;20445;-55
2023/06/06 00:36:40;;;;;;;3.03;2.67;;;;;;;-143.84;78.10;45050.97;5112646;28;20532;-55
2023/06/06 00:39:09;;;;;;;9.80;2.83;;;;;;;-143.84;78.38;45037.66;5112771;28;20443;-55
2023/06/06 00:41:36;;;;;;;4.10;2.97;;;;;;;-143.84;78.70;45075.72;5112802;28;20435;-55
2023/06/06 00:44:03;;;;;;;5.30;2.90;;;;;;;-143.84;78.76;45056.69;5112511;28;20500;-55
2023/06/06 00:46:30;;;;;;;6.00;3.13;;;;;;;-143.84;78.85;45050.97;5112896;28;20435;-55
2023/06/06 00:48:58;;;;;;;9.60;2.83;;;;;;;-143.84;78.84;45050.97;5112307;28;20492;-55
2023/06/06 00:51:26;;;;;;;3.93;2.87;;;;;;;-143.84;78.83;45066.22;5112292;28;20435;-55
2023/06/06 00:53:56;;;;;;;6.93;2.93;;;;;;;-143.84;78.92;45050.97;5112349;28;20436;-55
2023/06/06 00:56:28;;;;;;;3.13;2.83;;;;;;;-143.84;79.06;45062.41;5112758;28;20483;-55
2023/06/06 00:58:57;;;;;;;2.87;2.67;;;;;;;-143.84;79.56;45077.63;5112361;28;20443;-55
2023/06/06 01:01:28;;;;;;;3.07;2.77;;;;;;;-143.84;79.76;45052.88;5112156;28;20921;-55
2023/06/06 01:03:57;;;;;;;4.47;2.97;;;;;;;-143.84;79.85;45031.94;5112383;28;20474;-55
2023/06/06 01:06:25;;;;;;;2.67;2.47;;;;;;;-143.84;79.95;45043.34;5112091;28;20811;-55
2023/06/06 01:08:52;;;;;;;5.37;3.20;;;;;;;-143.84;79.89;45056.69;5112029;28;20488;-55
2023/06/06 01:11:27;;;;;;;3.60;3.00;;;;;;;-143.84;79.71;45054.78;5112268;28;20432;-55
2023/06/06 01:14:01;;;;;;;6.20;3.10;;;;;;;-143.84;79.99;45045.25;5112288;28;20447;-55
2023/06/06 01:16:33;;;;;;;6.30;2.87;;;;;;;-143.84;80.23;45070.00;5111921;28;20540;-55
2023/06/06 01:19:04;;;;;;;4.20;2.90;;;;;;;-143.84;80.62;45033.84;5111851;28;20439;-55
2023/06/06 01:21:36;;;;;;;7.60;3.43;;;;;;;-143.84;81.30;45035.75;5112081;28;20435;-55
2023/06/06 01:24:04;;;;;;;8.83;3.93;;;;;;;-143.84;81.75;45041.44;5111934;28;20558;-55
2023/06/06 01:26:31;;;;;;;3.60;2.90;;;;;;;-143.84;81.93;45014.78;5111833;28;20435;-56
2023/06/06 01:28:58;;;;;;;3.73;3.00;;;;;;;-143.84;82.10;45028.13;5111701;28;20444;-56
2023/06/06 01:31:33;;;;;;;7.50;3.63;;;;;;;-143.84;81.70;45016.69;5111694;28;20436;-55
2023/06/06 01:34:07;;;;;;;3.53;2.93;;;;;;;-143.84;81.48;45039.53;5111579;28;20513;-55
2023/06/06 01:36:46;;;;;;;5.83;2.87;;;;;;;-143.84;81.46;45020.50;5111656;28;20478;-55
2023/06/06 01:39:18;;;;;;;7.83;2.93;;;;;;;-143.84;81.70;45030.03;5111638;28;20455;-55
2023/06/06 01:41:51;;;;;;;6.03;3.20;;;;;;;-143.84;81.95;45035.75;5110403;28;20443;-56
2023/06/06 01:44:21;;;;;;;3.40;2.93;;;;;;;-143.84;81.66;45018.59;5111699;28;20432;-55
2023/06/06 01:46:48;;;;;;;5.33;3.20;;;;;;;-143.84;81.67;45054.78;5111600;28;20521;-56
2023/06/06 01:49:16;;;;;;;8.30;3.50;;;;;;;-143.84;81.81;45062.41;5111330;28;20476;-55
2023/06/06 01:51:45;;;;;;;4.83;2.93;;;;;;;-143.84;81.82;45007.19;5111355;28;20447;-56
2023/06/06 01:54:12;;;;;;;3.90;3.50;;;;;;;-143.84;81.87;45031.94;5111370;28;20497;-55
2023/06/06 01:56:39;;;;;;;4.20;3.47;;;;;;;-143.84;82.08;45014.78;5110981;28;20486;-56
2023/06/06 01:59:06;;;;;;;3.17;2.70;;;;;;;-143.84;82.35;44986.22;5111428;28;20864;-55
2023/06/06 02:01:34;;;;;;;4.13;3.43;;;;;;;-143.84;82.64;45007.19;5111222;28;20488;-55
2023/06/06 02:04:01;;;;;;;3.93;3.00;;;;;;;-143.84;83.56;44982.41;5110929;28;20439;-56
2023/06/06 02:06:28;;;;;;;5.83;3.67;;;;;;;-143.84;83.97;44950.06;5110811;28;20982;-56
2023/06/06 02:08:56;;;;;;;4.90;3.37;;;;;;;-143.84;83.78;45001.47;5111081;28;20909;-56
2023/06/06 02:11:24;;;;;;;3.30;2.50;;;;;;;-143.84;84.06;44988.13;5111061;28;20516;-55
2023/06/06 02:13:52;;;;;;;3.40;3.10;;;;;;;-143.84;83.66;44948.16;5110963;28;20542;-56
2023/06/06 02:16:21;;;;;;;6.63;3.73;;;;;;;-143.84;83.58;44976.72;5110487;28;20972;-56
2023/06/06 02:18:48;;;;;;;9.80;3.90;;;;;;;-143.84;83.80;44942.44;5110776;28;20540;-55
2023/06/06 02:21:15;;;;;;;8.13;3.30;;;;;;;-143.84;83.86;44976.72;5110780;28;20947;-55
2023/06/06 02:23:42;;;;;;;4.20;3.33;;;;;;;-143.84;84.20;44946.25;5110657;28;20451;-56
2023/06/06 02:26:12;;;;;;;7.20;4.30;;;;;;;-143.84;84.01;44967.19;5110915;28;21014;-56
2023/06/06 02:28:39;;;;;;;6.07;3.40;;;;;;;-143.84;84.09;44921.50;5110643;28;20444;-55
2023/06/06 02:31:06;;;;;;;4.97;3.20;;;;;;;-143.84;84.27;44944.34;5110895;28;20959;-56
2023/06/06 02:33:34;;;;;;;3.50;3.20;;;;;;;-143.84;84.20;44953.88;5110473;28;20440;-55
2023/06/06 02:36:01;;;;;;;8.43;3.60;;;;;;;-143.84;84.03;44959.56;5110620;28;20949;-55
2023/06/06 02:38:28;;;;;;;2.70;2.43;;;;;;;-143.84;84.04;44959.56;5110565;28;20571;-55
2023/06/06 02:40:55;;;;;;;5.40;3.40;;;;;;;-143.84;84.14;44942.44;5109894;28;20493;-55
2023/06/06 02:43:24;;;;;;;10.57;3.60;;;;;;;-143.84;84.05;44953.88;5110860;28;20432;-55
2023/06/06 02:45:52;;;;;;;4.10;3.60;;;;;;;-143.84;83.97;44967.19;5110270;28;20558;-56
2023/06/06 02:48:19;;;;;;;5.63;3.50;;;;;;;-143.84;83.98;44971.00;5110240;28;20435;-55
2023/06/06 02:50:47;;;;;;;5.90;3.30;;;;;;;-143.84;84.06;44953.88;5110223;28;20460;-55
2023/06/06 02:53:15;;;;;;;7.10;3.30;;;;;;;-143.84;84.12;44929.09;5109974;28;20769;-56
2023/06/06 02:55:42;;;;;;;9.23;4.20;;;;;;;-143.84;84.16;44932.91;5110444;28;20442;-55
2023/06/06 02:58:29;;;;;;;5.83;3.43;;;;;;;-143.84;84.07;44959.56;5110278;28;20479;-55
2023/06/06 03:00:57;;;;;;;17.17;4.20;;;;;;;-143.84;83.82;44950.06;5110224;28;20427;-55
2023/06/06 03:03:24;;;;;;;7.90;3.67;;;;;;;-143.84;83.83;44944.34;5110117;28;20439;-55
2023/06/06 03:05:51;;;;;;;10.53;3.70;;;;;;;-143.84;83.92;44951.97;5110115;28;21217;-56
2023/06/06 03:08:19;;;;;;;5.67;3.63;;;;;;;-143.84;83.55;44955.75;5110408;28;20444;-55
2023/06/06 03:10:47;;;;;;;5.90;3.60;;;;;;;-143.84;83.87;44967.19;5110184;28;20461;-55
2023/06/06 03:13:14;;;;;;;6.73;3.67;;;;;;;-143.84;83.91;44972.91;5109949;28;20532;-55
2023/06/06 03:15:44;;;;;;;4.40;3.60;;;;;;;-143.84;83.81;44927.19;5109366;28;20498;-56
2023/06/06 03:18:11;;;;;;;13.57;3.70;;;;;;;-143.84;83.78;44959.56;5109633;28;20490;-56
2023/06/06 03:20:40;;;;;;;6.73;4.50;;;;;;;-143.84;83.62;44961.47;5109434;28;20447;-55
2023/06/06 03:23:07;;;;;;;5.00;3.30;;;;;;;-143.84;83.26;44931.00;5109536;28;20440;-55
2023/06/06 03:25:34;;;;;;;6.97;4.17;;;;;;;-143.84;83.32;44950.06;5109580;28;20514;-56
2023/06/06 03:28:01;;;;;;;6.37;2.90;;;;;;;-143.84;82.82;44951.97;5109515;28;20440;-55
2023/06/06 03:30:29;;;;;;;7.03;4.10;;;;;;;-143.84;82.77;44951.97;5109196;28;20440;-56
2023/06/06 03:33:00;;;;;;;5.60;3.40;;;;;;;-143.84;81.33;44988.13;5109178;28;20435;-56
2023/06/06 03:35:29;;;;;;;8.50;3.30;;;;;;;-143.84;77.23;45012.88;5109046;28;20445;-56
2023/06/06 03:37:57;;;;;;;4.23;2.90;;;;;;;-143.84;71.51;45030.03;5109352;28;20482;-56
2023/06/06 03:40:24;;;;;;;4.43;3.03;;;;;;;-143.84;65.40;45030.03;5109346;28;20450;-56
2023/06/06 03:42:51;;;;;;;3.10;2.80;;;;;;;-143.84;60.76;45014.78;5109338;28;20852;-56
2023/06/06 03:45:20;;;;;;;4.70;3.47;;;;;;;-143.84;57.16;45005.28;5109039;28;20440;-56
2023/06/06 03:47:47;;;;;;;9.73;3.70;;;;;;;-143.84;54.56;45020.50;5109157;28;20447;-56
2023/06/06 03:50:17;;;;;;;6.97;3.30;;;;;;;-143.84;52.62;45026.22;5109309;28;20501;-55
2023/06/06 03:52:45;;;;;;;3.63;2.80;;;;;;;-143.84;51.17;45030.03;5109353;28;20443;-56
2023/06/06 03:55:12;;;;;;;5.77;2.90;;;;;;;-143.84;49.66;45010.97;5109374;28;20954;-56
2023/06/06 03:57:40;;;;;;;4.40;3.30;;;;;;;-143.84;48.23;44988.13;5109235;28;21328;-56
2023/06/06 04:00:11;;;;;;;5.40;2.50;;;;;;;-143.84;47.72;45010.97;5109423;28;20436;-56
2023/06/06 04:02:38;;;;;;;5.43;3.13;;;;;;;-143.84;46.51;44978.63;5109094;28;20437;-56
2023/06/06 04:05:06;;;;;;;4.47;2.90;;;;;;;-143.84;45.95;45003.38;5112388;28;20450;-56
2023/06/06 04:07:35;;;;;;;5.90;2.40;;;;;;;-143.84;45.62;44988.13;5113275;28;20448;-56
2023/06/06 04:10:03;;;;;;;5.50;2.60;;;;;;;-143.84;45.93;45001.47;5113276;28;20452;-56
2023/06/06 04:12:30;;;;;;;5.53;2.77;;;;;;;-143.84;45.44;44999.56;5113053;28;20495;-56
2023/06/06 04:14:58;;;;;;;2.37;2.00;;;;;;;-143.84;45.51;45001.47;5113235;28;20482;-56
2023/06/06 04:17:26;;;;;;;6.43;2.60;;;;;;;-143.84;45.48;45014.78;5113397;28;20539;-56
2023/06/06 04:19:53;;;;;;;3.93;2.30;;;;;;;-143.84;45.55;44972.91;5113010;28;20947;-56
2023/06/06 04:22:23;;;;;;;7.63;2.90;;;;;;;-143.84;45.55;45024.31;5112892;28;20446;-56
2023/06/06 04:24:52;;;;;;;2.90;2.60;;;;;;;-143.84;45.08;44974.81;5113202;28;20433;-56
2023/06/06 04:27:23;;;;;;;9.83;2.47;;;;;;;-143.84;44.80;45009.09;5113164;28;20450;-56
2023/06/06 04:29:52;;;;;;;3.30;2.50;;;;;;;-143.84;44.78;44978.63;5112830;28;20922;-56
2023/06/06 04:32:19;;;;;;;2.50;1.93;;;;;;;-143.84;44.27;44993.84;5113291;28;20442;-56
2023/06/06 04:34:51;;;;;;;6.50;2.50;;;;;;;-143.84;43.99;44982.41;5113252;28;20525;-56
2023/06/06 04:37:18;;;;;;;18.80;3.60;;;;;;;-143.84;43.87;44986.22;5112675;28;20521;-56
2023/06/06 04:39:52;;;;;;;9.27;2.60;;;;;;;-143.84;43.56;44969.09;5112840;28;20492;-56
2023/06/06 04:42:23;;;;;;;5.50;2.47;;;;;;;-143.84;43.51;44982.41;5112589;28;20445;-56
2023/06/06 04:44:50;;;;;;;4.20;2.17;;;;;;;-143.84;43.47;44991.94;5112423;28;20449;-56
2023/06/06 04:47:20;;;;;;;7.43;2.70;;;;;;;-143.84;43.40;44997.66;5112530;28;20441;-56
2023/06/06 04:49:48;;;;;;;5.80;2.47;;;;;;;-143.84;42.20;44999.56;5112539;28;20507;-56
2023/06/06 04:52:16;;;;;;;3.77;2.23;;;;;;;-143.84;42.65;45007.19;5113151;28;20435;-56
2023/06/06 04:54:45;;;;;;;10.80;2.60;;;;;;;-143.84;42.99;44995.75;5112426;28;20484;-56
2023/06/06 04:57:15;;;;;;;3.90;2.40;;;;;;;-143.84;42.91;44967.19;5112497;28;20490;-56
2023/06/06 04:59:50;;;;;;;4.13;2.13;;;;;;;-143.84;41.85;44948.16;5112506;28;20532;-56
2023/06/06 05:02:20;;;;;;;8.93;2.63;;;;;;;-143.84;42.11;44980.53;5112081;28;20450;-56
2023/06/06 05:04:48;;;;;;;2.63;2.10;;;;;;;-143.84;41.57;45007.19;5100737;28;20843;-56
2023/06/06 05:07:15;;;;;;;2.30;2.07;;;;;;;-143.84;42.83;44995.75;5092145;28;20431;-56
2023/06/06 05:09:42;;;;;;;3.43;1.90;;;;;;;-143.84;43.10;44969.09;5091989;28;20508;-56
2023/06/06 05:12:10;;;;;;;14.30;3.03;;;;;;;-143.84;42.15;44978.63;5091718;28;20448;-55
2023/06/06 05:14:37;;;;;;;3.20;2.50;;;;;;;-143.84;41.77;44990.03;5091410;28;20490;-55
2023/06/06 05:17:06;;;;;;;3.70;2.30;;;;;;;-143.84;40.99;44969.09;5091891;28;20924;-56
2023/06/06 05:19:34;;;;;;;3.33;2.33;;;;;;;-143.84;40.54;44986.22;5091949;28;20505;-56
2023/06/06 05:22:01;;;;;;;11.13;3.07;;;;;;;-143.84;40.53;44961.47;5091524;28;20451;-56
2023/06/06 05:24:28;;;;;;;8.80;2.10;;;;;;;-143.84;39.98;44993.84;5092158;28;20504;-56
2023/06/06 05:26:55;;;;;;;5.03;2.63;;;;;;;-143.84;39.96;44978.63;5091848;28;20438;-55
2023/06/06 05:29:25;;;;;;;7.70;2.57;;;;;;;-143.84;39.93;44982.41;5091699;28;20446;-55
2023/06/06 05:31:52;;;;;;;6.03;2.40;;;;;;;-143.84;40.31;44978.63;5091446;28;20458;-56
2023/06/06 05:34:20;;;;;;;7.80;2.33;;;;;;;-143.84;39.72;44984.31;5091330;28;20498;-55
2023/06/06 05:36:47;;;;;;;9.13;2.20;;;;;;;-143.84;39.19;44965.28;5091523;28;20454;-56
2023/06/06 05:39:15;;;;;;;4.77;2.90;;;;;;;-143.84;39.29;44965.28;5091410;28;20517;-56
2023/06/06 05:41:42;;;;;;;7.73;2.67;;;;;;;-143.84;39.36;44955.75;5091202;28;20432;-56
2023/06/06 05:44:09;;;;;;;3.97;2.20;;;;;;;-143.84;38.92;44963.38;5091688;28;20486;-56
2023/06/06 05:46:36;;;;;;;7.50;2.80;;;;;;;-143.84;38.45;44959.56;5091226;28;20502;-56
2023/06/06 05:49:03;;;;;;;6.47;2.73;;;;;;;-143.84;38.01;44967.19;5091246;28;20433;-56
2023/06/06 05:51:32;;;;;;;3.57;2.47;;;;;;;-143.84;37.87;44957.66;5091192;28;20448;-55
2023/06/06 05:53:59;;;;;;;11.27;2.57;;;;;;;-143.84;38.42;44932.91;5091017;28;20510;-55
2023/06/06 05:56:26;;;;;;;2.30;1.87;;;;;;;-143.84;38.52;44961.47;5090722;28;20840;-56
2023/06/06 05:58:53;;;;;;;4.90;2.30;;;;;;;-143.84;37.85;44967.19;5091426;28;20537;-56
2023/06/06 06:01:24;;;;;;;2.50;2.07;;;;;;;-143.84;37.01;44953.88;5090996;28;20443;-56
2023/06/06 06:03:52;;;;;;;5.83;2.30;;;;;;;-143.84;37.65;44969.09;5091036;28;20445;-56
2023/06/06 06:06:24;;;;;;;3.57;2.33;;;;;;;-143.84;37.07;44934.81;5090913;28;20493;-56
2023/06/06 06:08:55;;;;;;;9.03;2.27;;;;;;;-143.84;36.58;44921.50;5090707;28;20875;-56
2023/06/06 06:11:22;;;;;;;4.03;2.63;;;;;;;-143.84;36.07;44951.97;5090841;28;20513;-56
2023/06/06 06:13:49;;;;;;;7.50;2.27;;;;;;;-143.84;36.42;44934.81;5091055;28;20460;-56
2023/06/06 06:16:16;;;;;;;4.07;2.40;;;;;;;-143.84;36.82;44942.44;5090672;28;20529;-55
2023/06/06 06:18:44;;;;;;;9.10;2.53;;;;;;;-143.84;36.25;44917.69;5090549;28;20488;-56
2023/06/06 06:21:11;;;;;;;3.03;2.40;;;;;;;-143.84;35.61;44932.91;5090538;28;20443;-56
2023/06/06 06:23:38;;;;;;;4.40;2.50;;;;;;;-143.84;36.91;44917.69;5090421;28;20437;-55
2023/06/06 06:26:06;;;;;;;6.30;2.40;;;;;;;-143.84;36.48;44940.53;5089842;28;20435;-56
2023/06/06 06:28:34;;;;;;;7.40;2.40;;;;;;;-143.84;36.10;44927.19;5090272;28;20437;-56
2023/06/06 06:31:01;;;;;;;7.83;2.50;;;;;;;-143.84;37.04;44969.09;5090466;28;20465;-56
2023/06/06 06:33:29;;;;;;;7.80;2.70;;;;;;;-143.84;37.62;44946.25;5090374;28;20440;-55
2023/06/06 06:35:56;;;;;;;6.63;2.63;;;;;;;-143.84;37.33;44950.06;5090161;28;20535;-55
2023/06/06 06:38:24;;;;;;;3.03;2.53;;;;;;;-143.84;37.27;44923.41;5090025;28;20534;-56
2023/06/06 06:40:52;;;;;;;10.67;2.93;;;;;;;-143.84;37.59;44950.06;5090179;28;20441;-56
2023/06/06 06:43:20;;;;;;;8.23;2.33;;;;;;;-143.84;37.33;44942.44;5089887;28;20895;-55
2023/06/06 06:45:47;;;;;;;9.80;2.10;;;;;;;-143.84;36.76;44940.53;5090024;28;20923;-55
2023/06/06 06:48:14;;;;;;;8.57;2.80;;;;;;;-143.84;37.56;44944.34;5090450;28;20434;-56
2023/06/06 06:50:41;;;;;;;8.87;2.60;;;;;;;-143.84;37.27;44950.06;5089903;28;20437;-56
2023/06/06 06:53:10;;;;;;;6.50;2.07;;;;;;;-143.84;36.27;44961.47;5090126;28;20444;-56
2023/06/06 06:55:38;;;;;;;2.37;2.07;;;;;;;-143.84;36.71;44940.53;5089837;28;20456;-56
2023/06/06 06:58:07;;;;;;;5.70;2.30;;;;;;;-143.84;35.09;44921.50;5089809;28;20495;-55
2023/06/06 07:00:35;;;;;;;12.23;2.40;;;;;;;-143.84;35.37;44927.19;5089799;28;20864;-56
2023/06/06 07:03:03;;;;;;;7.87;2.20;;;;;;;-143.84;35.21;44938.63;5089822;28;20522;-56
2023/06/06 07:05:31;;;;;;;7.60;2.90;;;;;;;-143.84;34.96;44940.53;5089667;28;20442;-56
2023/06/06 07:07:59;;;;;;;3.27;2.50;;;;;;;-143.84;34.97;44951.97;5089723;28;20491;-56
2023/06/06 07:10:28;;;;;;;3.40;2.30;;;;;;;-143.84;35.08;44959.56;5089643;28;20477;-56
2023/06/06 07:12:56;;;;;;;8.10;2.10;;;;;;;-143.84;35.02;44913.88;5089566;28;20535;-56
2023/06/06 07:15:23;;;;;;;15.20;2.90;;;;;;;-143.84;35.11;44925.31;5089053;28;20479;-56
2023/06/06 07:17:51;;;;;;;8.07;2.37;;;;;;;-143.84;34.47;44929.09;5089279;28;20474;-56
2023/06/06 07:20:21;;;;;;;9.03;3.03;;;;;;;-143.84;33.37;44923.41;5090024;28;20441;-56
2023/06/06 07:22:49;;;;;;;8.63;2.20;;;;;;;-143.84;32.98;44932.91;5089026;28;20443;-56
2023/06/06 07:25:16;;;;;;;9.70;2.50;;;;;;;-143.84;32.24;44938.63;5089269;28;21037;-55
2023/06/06 07:27:43;;;;;;;7.87;2.40;;;;;;;-143.84;32.46;44944.34;5089187;28;20445;-55
2023/06/06 07:30:13;;;;;;;4.50;2.37;;;;;;;-143.84;33.46;44923.41;5089461;28;20505;-55
2023/06/06 07:32:41;;;;;;;8.90;2.37;;;;;;;-143.84;33.45;44936.72;5089206;28;20983;-56
2023/06/06 07:35:11;;;;;;;2.90;1.90;;;;;;;-143.84;34.02;44910.06;5089367;28;20533;-56
2023/06/06 07:37:38;;;;;;;10.10;2.30;;;;;;;-143.84;34.00;44955.75;5088855;28;20477;-55
2023/06/06 07:40:07;;;;;;;3.77;1.83;;;;;;;-143.84;33.56;44923.41;5088426;28;20441;-56
2023/06/06 07:42:36;;;;;;;5.90;2.50;;;;;;;-143.84;34.12;44950.06;5089087;28;20515;-56
2023/06/06 07:45:03;;;;;;;7.60;2.30;;;;;;;-143.84;33.82;44951.97;5089046;28;20444;-55
2023/06/06 07:47:30;;;;;;;2.63;2.40;;;;;;;-143.84;32.97;44927.19;5089333;28;20499;-56
2023/06/06 07:49:57;;;;;;;2.07;1.87;;;;;;;-143.84;33.95;44923.41;5088946;28;20439;-56
2023/06/06 07:52:26;;;;;;;5.83;2.30;;;;;;;-143.84;34.79;44942.44;5088892;28;20433;-56
2023/06/06 07:54:53;;;;;;;9.13;2.83;;;;;;;-143.84;33.49;44946.25;5089013;28;20443;-56
2023/06/06 07:57:21;;;;;;;11.00;2.37;;;;;;;-143.84;34.06;44953.88;5089387;28;20802;-56
2023/06/06 07:59:48;;;;;;;6.83;2.17;;;;;;;-143.84;34.68;44940.53;5088809;28;20473;-56
2023/06/06 08:02:15;;;;;;;12.33;2.20;;;;;;;-143.84;34.15;44940.53;5088592;28;20436;-55
2023/06/06 08:04:45;;;;;;;4.77;2.33;;;;;;;-143.84;34.02;44932.91;5088079;28;20490;-56
2023/06/06 08:07:13;;;;;;;2.13;1.93;;;;;;;-143.84;31.90;44934.81;5088465;28;20451;-55
2023/06/06 08:09:42;;;;;;;4.33;2.10;;;;;;;-143.84;31.29;44946.25;5088840;28;20440;-56
2023/06/06 08:12:11;;;;;;;15.83;2.43;;;;;;;-143.84;33.25;44929.09;5088396;28;20964;-55
2023/06/06 08:14:38;;;;;;;4.83;1.63;;;;;;;-143.84;32.20;44927.19;5088163;28;20485;-56
2023/06/06 08:17:07;;;;;;;4.23;2.30;;;;;;;-143.84;32.32;44961.47;5088673;28;20445;-55
2023/06/06 08:19:34;;;;;;;14.50;1.90;;;;;;;-143.84;33.34;44950.06;5088649;28;20477;-55
2023/06/06 08:22:02;;;;;;;11.17;2.27;;;;;;;-143.84;32.71;44917.69;5088623;28;20496;-56
2023/06/06 08:24:29;;;;;;;2.80;2.00;;;;;;;-143.84;32.56;44927.19;5088708;28;20881;-55
2023/06/06 08:26:58;;;;;;;4.27;2.00;;;;;;;-143.84;33.37;44965.28;5088835;28;20443;-55
2023/06/06 08:29:26;;;;;;;4.03;1.93;;;;;;;-143.84;31.86;44948.16;5088517;28;20503;-55
2023/06/06 08:31:54;;;;;;;3.07;1.90;;;;;;;-143.84;31.83;44934.81;5088598;28;20441;-55
2023/06/06 08:34:21;;;;;;;5.13;1.60;;;;;;;-143.84;31.87;44929.09;5088574;28;20459;-56
2023/06/06 08:36:48;;;;;;;5.00;2.40;;;;;;;-143.84;31.73;44942.44;5088255;28;20490;-56
2023/06/06 08:39:18;;;;;;;15.93;2.03;;;;;;;-143.84;32.25;44932.91;5088420;28;20487;-56
2023/06/06 08:41:50;;;;;;;2.23;1.93;;;;;;;-143.84;31.59;44948.16;5088591;28;20436;-55
2023/06/06 08:44:21;;;;;;;6.23;2.00;;;;;;;-143.84;32.09;44948.16;5088907;28;20523;-56
2023/06/06 08:46:50;;;;;;;12.37;1.90;;;;;;;-143.84;31.43;44938.63;5088441;28;20447;-55
2023/06/06 08:49:18;;;;;;;6.60;2.37;;;;;;;-143.84;32.61;44927.19;5088345;28;20452;-55
2023/06/06 08:51:47;;;;;;;7.07;2.17;;;;;;;-143.84;33.03;44951.97;5092323;28;20792;-55
2023/06/06 08:54:15;;;;;;;5.00;2.20;;;;;;;-143.84;32.57;44950.06;5092372;28;20927;-55
2023/06/06 08:56:44;;;;;;;8.03;2.40;;;;;;;-143.84;33.23;44932.91;5092040;28;20497;-55
2023/06/06 08:59:12;;;;;;;7.13;2.30;;;;;;;-143.84;33.23;44950.06;5091796;28;20475;-55
2023/06/06 09:01:41;;;;;;;6.60;3.50;;;;;;;-143.84;33.97;44946.25;5092158;28;20448;-56
2023/06/06 09:04:09;;;;;;;7.70;2.50;;;;;;;-143.84;35.05;44955.75;5091990;28;20483;-55
2023/06/06 09:06:38;;;;;;;6.47;2.40;;;;;;;-143.84;34.88;44957.66;5091747;28;20493;-55
2023/06/06 09:09:07;;;;;;;4.03;2.27;;;;;;;-143.84;35.50;44965.28;5092083;28;20528;-55
2023/06/06 09:11:35;;;;;;;10.77;1.83;;;;;;;-143.84;35.71;44932.91;5091657;28;20443;-55
2023/06/06 09:14:02;;;;;;;7.83;2.27;;;;;;;-143.84;36.39;44934.81;5091613;28;20474;-56
2023/06/06 09:16:29;;;;;;;4.07;2.77;;;;;;;-143.84;36.54;44953.88;5092044;28;20452;-55
2023/06/06 09:19:00;;;;;;;10.10;2.40;;;;;;;-143.84;35.53;44969.09;5091659;28;21024;-55
2023/06/06 09:21:29;;;;;;;5.63;1.93;;;;;;;-143.84;35.45;44950.06;5091867;28;20498;-55
2023/06/06 09:23:57;;;;;;;8.37;1.80;;;;;;;-143.84;35.67;44940.53;5091663;28;21037;-55
2023/06/06 09:26:26;;;;;;;2.50;2.17;;;;;;;-143.84;33.64;44965.28;5091433;28;20430;-55
2023/06/06 09:28:55;;;;;;;4.93;2.20;;;;;;;-143.84;34.62;44946.25;5091346;28;20445;-55
2023/06/06 09:31:27;;;;;;;2.23;2.07;;;;;;;-143.84;35.50;44929.09;5091279;28;20547;-55
2023/06/06 09:33:55;;;;;;;8.73;1.87;;;;;;;-143.84;33.77;44931.00;5091556;28;20436;-56
2023/06/06 09:36:27;;;;;;;5.53;2.47;;;;;;;-143.84;35.39;44953.88;5091415;28;20506;-56
2023/06/06 09:38:55;;;;;;;6.73;2.50;;;;;;;-143.84;36.39;44965.28;5091223;28;21328;-55
2023/06/06 09:41:22;;;;;;;7.53;2.40;;;;;;;-143.84;37.07;44990.03;5091364;28;20542;-55
2023/06/06 09:43:50;;;;;;;5.83;3.07;;;;;;;-143.84;36.19;44927.19;5091287;28;20858;-55
2023/06/06 09:46:18;;;;;;;6.33;2.40;;;;;;;-143.84;35.39;44953.88;5091229;28;20497;-55
2023/06/06 09:48:54;;;;;;;4.80;1.83;;;;;;;-143.84;37.41;44948.16;5090943;28;20953;-55
2023/06/06 09:51:22;;;;;;;12.13;2.13;;;;;;;-143.84;34.88;44950.06;5091326;28;20444;-55
2023/06/06 09:53:52;;;;;;;5.53;2.00;;;;;;;-143.84;35.42;44972.91;5091062;28;20439;-55
2023/06/06 09:56:23;;;;;;;3.47;2.80;;;;;;;-143.84;36.70;44932.91;5090996;28;20485;-55
2023/06/06 09:58:56;;;;;;;9.00;2.37;;;;;;;-143.84;34.82;44965.28;5091054;28;20515;-55
2023/06/06 10:01:27;;;;;;;16.93;1.80;;;;;;;-143.84;35.31;44946.25;5089871;28;20531;-55
2023/06/06 10:03:57;;;;;;;3.43;2.10;;;;;;;-143.84;35.40;44971.00;5091075;28;20466;-55
2023/06/06 10:06:26;;;;;;;7.23;2.37;;;;;;;-143.84;36.23;44961.47;5090921;28;20492;-55
2023/06/06 10:08:56;;;;;;;2.90;1.90;;;;;;;-143.84;35.51;44971.00;5090827;28;20441;-55
2023/06/06 10:11:24;;;;;;;5.20;2.17;;;;;;;-143.84;36.33;44953.88;5090641;28;20448;-55
2023/06/06 10:13:54;;;;;;;5.40;2.23;;;;;;;-143.84;36.27;44940.53;5090619;28;20471;-55
2023/06/06 10:16:22;;;;;;;6.60;2.17;;;;;;;-143.84;35.56;44971.00;5090408;28;20602;-55
2023/06/06 10:18:50;;;;;;;3.20;1.50;;;;;;;-143.84;34.64;44978.63;5090572;28;20446;-55
2023/06/06 10:21:18;;;;;;;6.43;1.70;;;;;;;-143.84;35.46;44971.00;5090574;28;20448;-55
2023/06/06 10:23:46;;;;;;;3.07;1.90;;;;;;;-143.84;36.36;44961.47;5090650;28;20964;-55
2023/06/06 10:26:19;;;;;;;6.83;2.27;;;;;;;-143.84;37.08;44965.28;5090655;28;21008;-55
2023/06/06 10:28:54;;;;;;;5.53;1.90;;;;;;;-143.84;37.07;44971.00;5090243;28;20808;-55
2023/06/06 10:31:32;;;;;;;3.20;2.30;;;;;;;-143.84;35.76;44965.28;5090153;28;20446;-55
2023/06/06 10:34:04;;;;;;;7.00;2.23;;;;;;;-143.84;35.76;44980.53;5090443;28;20443;-55
2023/06/06 10:36:41;;;;;;;5.23;1.90;;;;;;;-143.84;35.82;44948.16;5089934;28;20444;-55
2023/06/06 10:39:21;;;;;;;4.73;1.73;;;;;;;-143.84;35.48;44963.38;5090123;28;21010;-55
2023/06/06 10:41:54;;;;;;;2.70;1.90;;;;;;;-143.84;36.67;44969.09;5090091;28;20520;-55
2023/06/06 10:44:34;;;;;;;4.87;2.40;;;;;;;-143.84;36.79;44969.09;5090576;28;20447;-55
2023/06/06 10:47:28;;;;;;;5.57;2.47;;;;;;;-143.84;36.88;44967.19;5089799;28;20443;-55
2023/06/06 10:50:23;;;;;;;2.43;1.70;;;;;;;-143.84;36.68;44955.75;5090068;28;20452;-55
2023/06/06 10:52:51;;;;;;;7.60;2.13;;;;;;;-143.84;37.67;44957.66;5090197;28;20450;-55
2023/06/06 10:55:41;;;;;;;4.40;2.17;;;;;;;-143.84;37.18;44976.72;5089912;28;20444;-55
2023/06/06 10:58:13;;;;;;;4.03;2.37;;;;;;;-143.84;36.90;44974.81;5089968;28;20444;-55
2023/06/06 11:00:42;;;;;;;13.03;1.83;;;;;;;-143.84;36.73;45001.47;5089796;28;20939;-55
2023/06/06 11:03:10;;;;;;;3.10;1.70;;;;;;;-143.84;36.81;44959.56;5089626;28;20530;-55
2023/06/06 11:06:11;;;;;;;7.20;2.60;;;;;;;-143.84;37.33;44967.19;5089728;28;21065;-55
2023/06/06 11:08:39;;;;;;;2.90;1.87;;;;;;;-143.84;38.80;44971.00;5089518;28;20534;-55
2023/06/06 11:11:25;;;;;;;3.97;1.97;;;;;;;-143.84;38.18;44955.75;5089636;28;20912;-55
2023/06/06 11:13:59;;;;;;;6.10;2.20;;;;;;;-143.84;36.79;44969.09;5089402;28;20450;-55
2023/06/06 11:17:00;;;;;;;2.17;1.67;;;;;;;-143.84;37.70;44965.28;5049286;28;21011;-55
2023/06/06 11:19:33;;;;;;;11.13;2.20;;;;;;;-143.84;37.35;44984.31;5049547;28;20490;-56
2023/06/06 11:22:02;;;;;;;5.27;1.90;;;;;;;-143.84;38.59;44980.53;5049188;28;20445;-56
2023/06/06 11:24:35;;;;;;;1.90;1.70;;;;;;;-143.84;39.06;44980.53;5048986;28;20445;-55
2023/06/06 11:27:03;;;;;;;3.73;1.97;;;;;;;-143.84;39.82;44986.22;5049150;28;20494;-55